Time;durP1;ratioP1;P1;durP2;ratioP2;P2;SDS_P1;SDS_P2;PMS_P1;PMS_P2;Temp;Humidity;BMP_temperature;BMP_pressure;BME280_temperature;BME280_humidity;BME280_pressure;Samples;Min_cycle;Max_cycle;Signal;HPM_P1;HPM_P2
2023/01/23 00:01:13;;;;;;;4.20;1.87;;;2.80;99.90;;;;;;5081232;27;20321;-65
2023/01/23 00:03:40;;;;;;;3.10;1.70;;;2.80;99.90;;;;;;5047310;28;20293;-66
2023/01/23 00:06:10;;;;;;;3.03;1.90;;;2.80;99.90;;;;;;5085992;27;20901;-65
2023/01/23 00:08:38;;;;;;;7.53;2.70;;;2.80;99.90;;;;;;5066224;27;20290;-65
2023/01/23 00:11:06;;;;;;;3.03;1.97;;;2.80;99.90;;;;;;5070328;27;20852;-65
2023/01/23 00:13:34;;;;;;;4.57;2.33;;;2.80;99.90;;;;;;5070263;27;20204;-65
2023/01/23 00:16:04;;;;;;;3.40;1.90;;;2.80;99.90;;;;;;5079974;27;20294;-65
2023/01/23 00:18:31;;;;;;;3.67;1.93;;;2.80;99.90;;;;;;5090319;27;20288;-66
2023/01/23 00:20:58;;;;;;;3.57;2.03;;;2.70;99.90;;;;;;5040301;28;20692;-65
2023/01/23 00:23:25;;;;;;;3.50;1.90;;;2.80;99.90;;;;;;5076364;27;20294;-65
2023/01/23 00:25:52;;;;;;;2.23;2.03;;;2.70;99.90;;;;;;5071156;27;20216;-66
2023/01/23 00:28:19;;;;;;;3.70;1.83;;;2.70;99.90;;;;;;5069719;27;20842;-65
2023/01/23 00:30:47;;;;;;;5.40;2.10;;;2.70;99.90;;;;;;5072666;27;20223;-65
2023/01/23 00:33:14;;;;;;;4.43;2.33;;;2.70;99.90;;;;;;5079196;28;20200;-65
2023/01/23 00:35:41;;;;;;;4.53;1.83;;;2.70;99.90;;;;;;5057798;27;20348;-65
2023/01/23 00:38:08;;;;;;;5.33;2.67;;;2.70;99.90;;;;;;5069333;27;20203;-65
2023/01/23 00:40:35;;;;;;;8.17;2.30;;;2.80;99.90;;;;;;5078794;27;20676;-65
2023/01/23 00:43:02;;;;;;;2.93;2.27;;;2.70;99.90;;;;;;5058491;27;20298;-65
2023/01/23 00:45:28;;;;;;;3.83;2.17;;;2.70;99.90;;;;;;5083768;27;20287;-65
2023/01/23 00:47:57;;;;;;;4.57;2.30;;;2.80;99.90;;;;;;5085289;27;20322;-65
2023/01/23 00:50:23;;;;;;;4.67;2.20;;;2.70;99.90;;;;;;5054091;27;20237;-65
2023/01/23 00:52:50;;;;;;;4.93;2.00;;;2.70;99.90;;;;;;5086777;27;20311;-65
2023/01/23 00:55:17;;;;;;;7.93;2.77;;;2.70;99.90;;;;;;5072081;27;20688;-64
2023/01/23 00:57:44;;;;;;;2.90;2.00;;;2.80;99.90;;;;;;5069790;27;20220;-65
2023/01/23 01:00:12;;;;;;;3.50;1.80;;;2.70;99.90;;;;;;5064000;27;20315;-65
2023/01/23 01:02:39;;;;;;;3.47;2.10;;;2.70;99.90;;;;;;5078369;27;20293;-65
2023/01/23 01:05:08;;;;;;;3.47;1.80;;;2.70;99.90;;;;;;5054748;27;20402;-65
2023/01/23 01:07:34;;;;;;;5.93;2.20;;;2.70;99.90;;;;;;5069363;27;20287;-65
2023/01/23 01:10:01;;;;;;;4.30;1.87;;;2.70;99.90;;;;;;5077555;27;20780;-65
2023/01/23 01:12:28;;;;;;;4.27;2.10;;;2.60;99.90;;;;;;5067661;27;21637;-65
2023/01/23 01:14:55;;;;;;;7.30;2.30;;;2.60;99.90;;;;;;5072573;27;20338;-65
2023/01/23 01:17:22;;;;;;;5.07;1.70;;;2.60;99.90;;;;;;5078720;27;20290;-65
2023/01/23 01:19:49;;;;;;;6.43;2.40;;;2.50;99.90;;;;;;5085880;27;20290;-65
2023/01/23 01:22:17;;;;;;;5.30;2.20;;;2.50;99.90;;;;;;5056675;27;20207;-65
2023/01/23 01:24:45;;;;;;;5.17;2.10;;;2.50;99.90;;;;;;5067382;28;20203;-65
2023/01/23 01:27:11;;;;;;;5.77;1.97;;;2.50;99.90;;;;;;5085498;28;20316;-65
2023/01/23 01:29:38;;;;;;;3.50;2.20;;;3.00;99.90;;;;;;5048513;27;21015;-65
2023/01/23 01:32:05;;;;;;;4.67;2.53;;;2.40;99.90;;;;;;5071758;28;20963;-65
2023/01/23 01:34:32;;;;;;;8.93;2.73;;;2.40;99.90;;;;;;5079554;27;20324;-65
2023/01/23 01:36:59;;;;;;;6.33;2.50;;;2.40;99.90;;;;;;5044336;28;20210;-64
2023/01/23 01:39:27;;;;;;;6.97;2.50;;;2.40;99.90;;;;;;5083640;27;20716;-65
2023/01/23 01:41:54;;;;;;;9.67;2.60;;;2.50;99.90;;;;;;5076555;27;20295;-65
2023/01/23 01:44:22;;;;;;;4.93;2.30;;;2.50;99.90;;;;;;5046777;27;20416;-66
2023/01/23 01:46:50;;;;;;;4.63;2.20;;;2.50;99.90;;;;;;5076248;28;20281;-65
2023/01/23 01:49:21;;;;;;;4.57;2.13;;;2.40;99.90;;;;;;5072220;27;20302;-65
2023/01/23 01:51:51;;;;;;;3.90;2.60;;;2.40;99.90;;;;;;5053363;27;20309;-65
2023/01/23 01:54:23;;;;;;;4.10;1.97;;;2.40;99.90;;;;;;5074745;28;20230;-65
2023/01/23 01:56:55;;;;;;;8.67;2.73;;;2.40;99.90;;;;;;5059312;28;20258;-65
2023/01/23 01:59:24;;;;;;;3.77;2.00;;;2.40;99.90;;;;;;5067791;27;21174;-65
2023/01/23 02:01:56;;;;;;;4.00;2.27;;;2.40;99.90;;;;;;5056422;27;20698;-65
2023/01/23 02:04:23;;;;;;;6.53;2.20;;;2.30;99.90;;;;;;5081364;27;20249;-65
2023/01/23 02:06:52;;;;;;;5.97;2.23;;;2.40;99.90;;;;;;5053350;27;20208;-65
2023/01/23 02:09:24;;;;;;;5.83;2.30;;;2.40;99.90;;;;;;5076761;27;20336;-65
2023/01/23 02:11:53;;;;;;;9.27;2.57;;;2.40;99.90;;;;;;5069501;27;20230;-65
2023/01/23 02:14:23;;;;;;;4.80;1.90;;;2.40;99.90;;;;;;5062245;28;20214;-66
2023/01/23 02:16:51;;;;;;;3.80;2.27;;;2.40;99.90;;;;;;5071369;27;20255;-65
2023/01/23 02:19:31;;;;;;;6.83;2.40;;;2.40;99.90;;;;;;5075869;27;20206;-65
2023/01/23 02:22:08;;;;;;;3.43;2.27;;;2.40;99.90;;;;;;5081736;28;20289;-65
2023/01/23 02:24:41;;;;;;;4.40;1.87;;;2.50;99.90;;;;;;5060601;27;20204;-65
2023/01/23 02:27:09;;;;;;;6.33;2.00;;;2.40;99.90;;;;;;5070952;27;20312;-65
2023/01/23 02:29:47;;;;;;;6.17;2.13;;;2.40;99.90;;;;;;5063070;27;20326;-65
2023/01/23 02:32:14;;;;;;;3.30;2.20;;;2.50;99.90;;;;;;5072114;27;20261;-67
2023/01/23 02:34:42;;;;;;;2.57;1.73;;;2.50;99.90;;;;;;5072884;28;20199;-66
2023/01/23 02:37:09;;;;;;;3.67;2.20;;;2.50;99.90;;;;;;5069986;28;20390;-65
2023/01/23 02:39:36;;;;;;;6.47;2.20;;;2.40;99.90;;;;;;5053137;28;20303;-65
2023/01/23 02:42:05;;;;;;;3.37;2.20;;;2.50;99.90;;;;;;5074026;27;20218;-65
2023/01/23 02:44:33;;;;;;;2.63;1.77;;;2.40;99.90;;;;;;5055858;28;21308;-65
2023/01/23 02:47:02;;;;;;;6.00;2.37;;;2.40;99.90;;;;;;5069770;28;20299;-65
2023/01/23 02:49:29;;;;;;;7.57;2.17;;;2.50;99.90;;;;;;5063728;27;20206;-65
2023/01/23 02:51:56;;;;;;;2.37;1.83;;;2.40;99.90;;;;;;5087070;27;20366;-65
2023/01/23 02:54:24;;;;;;;6.97;2.20;;;2.50;99.90;;;;;;5044415;28;20665;-66
2023/01/23 02:56:51;;;;;;;2.47;1.90;;;2.40;99.90;;;;;;5083799;28;20271;-65
2023/01/23 03:02:05;;;;;;;2.67;2.00;;;2.40;99.90;;;;;;5073870;28;20206;-65
2023/01/23 03:04:32;;;;;;;3.40;2.00;;;2.40;99.90;;;;;;5064710;28;22019;-65
2023/01/23 03:06:59;;;;;;;2.33;1.80;;;2.40;99.90;;;;;;5089061;27;21088;-67
2023/01/23 03:09:26;;;;;;;3.17;2.13;;;2.50;99.90;;;;;;5055244;27;20204;-65
2023/01/23 03:11:53;;;;;;;5.13;2.40;;;2.50;99.90;;;;;;5086679;27;21053;-65
2023/01/23 03:14:22;;;;;;;2.33;1.80;;;2.40;99.90;;;;;;5079601;27;20293;-65
2023/01/23 03:16:52;;;;;;;5.37;1.90;;;2.50;99.90;;;;;;5061549;27;20338;-65
2023/01/23 03:19:23;;;;;;;2.10;1.60;;;2.50;99.90;;;;;;5066995;28;20257;-65
2023/01/23 03:21:50;;;;;;;3.17;2.00;;;2.50;99.90;;;;;;5065410;27;21603;-65
2023/01/23 03:24:17;;;;;;;9.00;2.30;;;2.50;99.90;;;;;;5079102;27;20292;-65
2023/01/23 03:26:47;;;;;;;4.50;2.20;;;2.50;99.90;;;;;;5047911;28;20218;-65
2023/01/23 03:32:01;;;;;;;5.60;1.80;;;2.50;99.90;;;;;;5070620;27;20264;-65
2023/01/23 03:34:30;;;;;;;3.40;2.30;;;2.50;99.90;;;;;;5070950;27;20215;-65
2023/01/23 03:36:57;;;;;;;2.80;2.20;;;2.50;99.90;;;;;;5073422;28;20777;-66
2023/01/23 03:42:08;;;;;;;3.07;2.00;;;2.50;99.90;;;;;;5040527;28;20214;-65
2023/01/23 03:44:35;;;;;;;2.17;1.40;;;2.40;99.90;;;;;;5067947;27;20292;-65
2023/01/23 03:47:02;;;;;;;5.23;1.83;;;2.40;99.90;;;;;;5081824;27;20762;-64
2023/01/23 03:49:31;;;;;;;4.60;2.00;;;2.40;99.90;;;;;;5062711;27;20859;-65
2023/01/23 03:51:58;;;;;;;2.90;2.13;;;2.50;99.90;;;;;;5061170;27;20345;-64
2023/01/23 03:54:25;;;;;;;3.13;2.27;;;2.50;99.90;;;;;;5078517;28;20990;-65
2023/01/23 03:56:52;;;;;;;4.57;1.83;;;2.40;99.90;;;;;;5051269;28;20645;-65
2023/01/23 03:59:19;;;;;;;2.30;1.70;;;2.60;99.90;;;;;;5069205;28;21693;-65
2023/01/23 04:01:47;;;;;;;2.73;2.00;;;2.40;99.90;;;;;;5063570;27;21518;-65
2023/01/23 04:04:13;;;;;;;3.07;1.87;;;2.50;99.90;;;;;;5067509;27;20206;-66
2023/01/23 04:06:42;;;;;;;5.90;2.20;;;2.50;99.90;;;;;;5066827;27;20203;-65
2023/01/23 04:09:09;;;;;;;2.20;2.00;;;2.50;99.90;;;;;;5076934;27;20228;-65
2023/01/23 04:11:35;;;;;;;5.30;2.57;;;2.50;99.90;;;;;;5052148;27;21150;-65
2023/01/23 04:14:02;;;;;;;4.10;2.40;;;2.50;99.90;;;;;;5084575;27;21168;-65
2023/01/23 04:16:29;;;;;;;4.70;2.37;;;2.50;99.90;;;;;;5073569;27;20298;-65
2023/01/23 04:18:56;;;;;;;4.00;2.70;;;2.50;99.90;;;;;;5061137;27;20301;-65
2023/01/23 04:21:23;;;;;;;2.83;2.13;;;3.00;99.90;;;;;;5067385;27;20360;-65
2023/01/23 04:23:51;;;;;;;6.27;2.40;;;2.50;99.90;;;;;;5089159;28;20747;-66
2023/01/23 04:26:18;;;;;;;7.60;2.67;;;2.50;99.90;;;;;;5055247;27;21051;-65
2023/01/23 04:28:45;;;;;;;6.37;2.70;;;2.50;99.90;;;;;;5084329;27;20374;-65
2023/01/23 04:31:11;;;;;;;3.10;2.47;;;2.50;99.90;;;;;;5061770;27;20325;-65
2023/01/23 04:33:38;;;;;;;4.57;2.50;;;2.50;99.90;;;;;;5066394;27;20231;-65
2023/01/23 04:36:07;;;;;;;4.33;3.13;;;2.50;99.90;;;;;;5063620;28;21214;-65
2023/01/23 04:38:34;;;;;;;7.80;3.03;;;2.40;99.90;;;;;;5056333;27;20202;-65
2023/01/23 04:41:02;;;;;;;8.03;2.73;;;2.50;99.90;;;;;;5078506;27;20354;-65
2023/01/23 04:43:29;;;;;;;3.00;2.70;;;2.50;99.90;;;;;;5048075;27;20297;-65
2023/01/23 04:45:57;;;;;;;4.87;2.90;;;2.50;99.90;;;;;;5068163;28;20293;-65
2023/01/23 04:48:24;;;;;;;6.57;3.00;;;2.40;99.90;;;;;;5048060;28;20228;-65
2023/01/23 04:50:51;;;;;;;5.63;3.43;;;2.50;99.90;;;;;;5060400;27;20199;-66
2023/01/23 04:53:18;;;;;;;5.60;3.07;;;2.50;99.90;;;;;;5068727;27;20910;-66
2023/01/23 04:55:47;;;;;;;4.67;3.10;;;2.50;99.90;;;;;;5056851;28;20322;-65
2023/01/23 04:58:16;;;;;;;5.23;3.30;;;2.50;99.90;;;;;;5040506;27;20207;-65
2023/01/23 05:00:43;;;;;;;9.10;3.60;;;2.50;99.90;;;;;;5070292;28;20302;-65
2023/01/23 05:03:10;;;;;;;8.00;3.70;;;2.50;99.90;;;;;;5060790;27;21192;-65
2023/01/23 05:05:37;;;;;;;4.23;3.40;;;2.50;99.90;;;;;;5043399;27;20301;-65
2023/01/23 05:08:04;;;;;;;5.77;3.60;;;2.50;99.90;;;;;;5042470;27;20306;-65
2023/01/23 05:10:31;;;;;;;6.37;3.53;;;2.50;99.90;;;;;;5080042;27;20341;-65
2023/01/23 05:12:58;;;;;;;4.87;3.33;;;2.50;99.90;;;;;;5050195;27;20242;-66
2023/01/23 05:15:26;;;;;;;6.10;3.50;;;2.50;99.90;;;;;;5081314;27;20289;-65
2023/01/23 05:17:53;;;;;;;7.37;3.50;;;2.50;99.90;;;;;;5069256;27;20290;-65
2023/01/23 05:20:22;;;;;;;5.80;4.00;;;2.50;99.90;;;;;;5073160;27;20318;-65
2023/01/23 05:22:52;;;;;;;5.47;3.93;;;2.50;99.90;;;;;;5066244;27;20200;-65
2023/01/23 05:25:20;;;;;;;5.33;3.90;;;2.40;99.90;;;;;;5084031;27;20198;-65
2023/01/23 05:27:47;;;;;;;7.00;4.10;;;2.40;99.90;;;;;;5054650;28;20215;-66
2023/01/23 05:30:14;;;;;;;4.80;3.90;;;2.50;99.90;;;;;;5081373;28;20286;-66
2023/01/23 05:32:42;;;;;;;5.83;4.03;;;2.40;99.90;;;;;;5077978;28;20297;-66
2023/01/23 05:35:09;;;;;;;7.20;4.40;;;2.40;99.90;;;;;;5064810;27;20204;-65
2023/01/23 05:37:36;;;;;;;7.53;4.77;;;2.40;99.90;;;;;;5064243;27;20342;-66
2023/01/23 05:40:05;;;;;;;7.03;4.80;;;2.50;99.90;;;;;;5057628;28;20380;-66
2023/01/23 05:42:33;;;;;;;8.30;4.80;;;2.50;99.90;;;;;;5074113;27;21511;-66
2023/01/23 05:44:59;;;;;;;6.47;4.57;;;2.40;99.90;;;;;;5065554;28;20202;-65
2023/01/23 05:47:27;;;;;;;6.57;4.67;;;2.40;99.90;;;;;;5084122;28;20306;-65
2023/01/23 05:49:55;;;;;;;7.27;5.10;;;2.50;99.90;;;;;;5038756;27;20246;-65
2023/01/23 05:52:22;;;;;;;6.63;4.90;;;2.40;99.90;;;;;;5059073;27;21919;-64
2023/01/23 05:54:49;;;;;;;10.87;5.07;;;2.40;99.90;;;;;;5058360;27;20340;-65
2023/01/23 05:57:16;;;;;;;7.97;5.23;;;2.40;99.90;;;;;;5059383;27;20231;-66
2023/01/23 05:59:43;;;;;;;7.87;4.83;;;2.40;99.90;;;;;;5024721;27;20222;-64
2023/01/23 06:02:10;;;;;;;8.73;5.60;;;2.40;99.90;;;;;;5071809;27;20211;-64
2023/01/23 06:04:37;;;;;;;9.07;5.17;;;2.40;99.90;;;;;;5045908;27;20346;-65
2023/01/23 06:07:05;;;;;;;7.90;5.50;;;2.40;99.90;;;;;;5061222;28;20323;-65
2023/01/23 06:09:32;;;;;;;8.10;5.43;;;2.40;99.90;;;;;;5061573;27;20235;-65
2023/01/23 06:11:59;;;;;;;8.90;5.40;;;2.40;99.90;;;;;;5050674;27;20272;-64
2023/01/23 06:14:26;;;;;;;9.17;5.60;;;2.40;99.90;;;;;;5032574;27;20225;-65
2023/01/23 06:16:52;;;;;;;9.70;5.47;;;2.40;99.90;;;;;;5058660;27;21029;-64
2023/01/23 06:19:19;;;;;;;10.47;5.80;;;2.30;99.90;;;;;;5043556;28;20339;-64
2023/01/23 06:21:46;;;;;;;10.10;6.37;;;2.30;99.90;;;;;;5073624;27;20319;-65
2023/01/23 06:24:14;;;;;;;14.67;6.73;;;2.40;99.90;;;;;;5075751;27;20234;-65
2023/01/23 06:26:41;;;;;;;7.87;6.17;;;2.30;99.90;;;;;;5082234;27;20296;-65
2023/01/23 06:29:08;;;;;;;9.50;6.37;;;2.40;99.90;;;;;;5034518;28;20209;-65
2023/01/23 06:31:35;;;;;;;8.00;6.00;;;2.20;99.90;;;;;;5085574;27;20721;-66
2023/01/23 06:34:02;;;;;;;9.03;6.53;;;2.40;99.90;;;;;;5054666;27;20294;-66
2023/01/23 06:36:29;;;;;;;8.67;5.40;;;2.30;99.90;;;;;;5055958;28;20664;-65
2023/01/23 06:38:56;;;;;;;6.57;5.00;;;2.40;99.90;;;;;;5075649;27;21480;-64
2023/01/23 06:41:24;;;;;;;10.47;5.37;;;2.30;99.90;;;;;;5074957;28;20330;-65
2023/01/23 06:43:52;;;;;;;7.57;5.53;;;2.40;99.90;;;;;;5077439;28;20302;-65
2023/01/23 06:46:19;;;;;;;7.03;4.60;;;2.30;99.90;;;;;;5056056;28;20243;-64
2023/01/23 06:48:46;;;;;;;8.60;5.30;;;2.30;99.90;;;;;;5083656;28;20298;-65
2023/01/23 06:51:13;;;;;;;7.27;5.23;;;2.30;99.90;;;;;;5065746;27;20206;-65
2023/01/23 06:53:39;;;;;;;10.23;5.37;;;2.30;99.90;;;;;;5074589;28;20403;-65
2023/01/23 06:56:08;;;;;;;7.53;5.77;;;2.30;99.90;;;;;;5069291;28;20315;-65
2023/01/23 06:58:38;;;;;;;10.70;5.80;;;2.30;99.90;;;;;;5074307;28;20318;-66
2023/01/23 07:01:09;;;;;;;8.93;5.13;;;2.40;99.90;;;;;;5051054;28;20224;-65
2023/01/23 07:03:36;;;;;;;7.20;5.23;;;2.30;99.90;;;;;;5086830;28;20344;-65
2023/01/23 07:06:05;;;;;;;10.13;6.00;;;2.40;99.90;;;;;;5067570;28;20229;-65
2023/01/23 07:08:32;;;;;;;7.53;5.20;;;2.40;99.90;;;;;;5026265;28;20234;-65
2023/01/23 07:10:59;;;;;;;7.57;5.67;;;2.40;99.90;;;;;;5068774;28;20283;-66
2023/01/23 07:13:26;;;;;;;9.80;5.80;;;2.40;99.90;;;;;;5075692;28;20708;-66
2023/01/23 07:15:55;;;;;;;11.03;6.40;;;2.40;99.90;;;;;;5027508;28;20207;-65
2023/01/23 07:18:22;;;;;;;12.10;6.20;;;2.40;99.90;;;;;;5082496;28;20555;-65
2023/01/23 07:20:49;;;;;;;9.07;5.50;;;2.30;99.90;;;;;;5062198;28;20391;-65
2023/01/23 07:23:16;;;;;;;6.80;5.40;;;2.40;99.90;;;;;;5044711;28;20204;-66
2023/01/23 07:25:44;;;;;;;11.03;6.17;;;2.40;99.90;;;;;;5055649;28;20290;-65
2023/01/23 07:28:11;;;;;;;10.40;6.30;;;2.40;99.90;;;;;;5068575;28;20208;-65
2023/01/23 07:30:38;;;;;;;12.97;6.83;;;2.40;99.90;;;;;;5050884;28;20249;-66
2023/01/23 07:33:06;;;;;;;7.37;5.43;;;2.40;99.90;;;;;;5061764;28;20329;-66
2023/01/23 07:35:33;;;;;;;9.17;5.80;;;2.40;99.90;;;;;;5069775;28;21440;-66
2023/01/23 07:38:00;;;;;;;12.57;5.37;;;2.40;99.90;;;;;;5052571;28;20337;-66
2023/01/23 07:40:27;;;;;;;8.43;5.43;;;2.30;99.90;;;;;;5062555;28;20201;-66
2023/01/23 07:42:54;;;;;;;9.90;5.73;;;2.40;99.90;;;;;;5079522;28;20210;-66
2023/01/23 07:45:21;;;;;;;10.10;5.40;;;2.30;99.90;;;;;;5066919;28;20202;-66
2023/01/23 07:47:47;;;;;;;10.83;6.03;;;2.40;99.90;;;;;;5055539;28;20639;-67
2023/01/23 07:50:16;;;;;;;10.67;5.40;;;2.40;99.90;;;;;;5081637;28;20223;-66
2023/01/23 07:52:42;;;;;;;11.03;7.07;;;2.40;99.90;;;;;;5054503;28;23027;-66
2023/01/23 07:55:10;;;;;;;8.53;6.00;;;2.40;99.90;;;;;;5075339;27;21868;-66
2023/01/23 07:57:36;;;;;;;11.17;5.90;;;2.40;99.90;;;;;;5066560;27;20240;-66
2023/01/23 08:00:05;;;;;;;12.60;5.67;;;2.40;99.90;;;;;;5073952;27;20195;-66
2023/01/23 08:02:31;;;;;;;8.27;5.77;;;2.50;99.90;;;;;;5050683;27;20205;-65
2023/01/23 08:04:58;;;;;;;7.10;5.30;;;2.50;99.90;;;;;;5080807;27;20301;-66
2023/01/23 08:07:27;;;;;;;8.47;5.60;;;2.40;99.90;;;;;;5064653;27;20238;-65
2023/01/23 08:09:54;;;;;;;11.23;5.50;;;2.40;99.90;;;;;;5069293;27;20203;-66
2023/01/23 08:12:20;;;;;;;17.73;6.30;;;2.50;99.90;;;;;;5086786;27;20368;-66
2023/01/23 08:14:47;;;;;;;11.67;6.27;;;2.50;99.90;;;;;;5064835;27;20643;-66
2023/01/23 08:17:14;;;;;;;12.87;6.43;;;2.50;99.90;;;;;;5050187;28;20811;-65
2023/01/23 08:19:41;;;;;;;8.43;6.03;;;2.50;99.90;;;;;;5076093;28;20218;-66
2023/01/23 08:22:08;;;;;;;10.70;6.03;;;2.50;99.90;;;;;;5066932;27;20303;-66
2023/01/23 08:24:36;;;;;;;10.00;6.27;;;2.40;99.90;;;;;;5074930;27;20349;-66
2023/01/23 08:27:03;;;;;;;8.73;5.93;;;2.50;99.90;;;;;;5070958;28;20220;-66
2023/01/23 08:29:31;;;;;;;9.97;6.00;;;2.50;99.90;;;;;;5049073;27;20373;-66
2023/01/23 08:31:58;;;;;;;10.50;5.27;;;2.50;99.90;;;;;;5083280;27;20778;-65
2023/01/23 08:34:25;;;;;;;9.33;6.13;;;2.50;99.90;;;;;;5054932;27;20401;-65
2023/01/23 08:36:52;;;;;;;10.77;6.07;;;2.50;99.90;;;;;;5085308;27;20314;-66
2023/01/23 08:39:19;;;;;;;17.17;6.87;;;2.50;99.90;;;;;;5045511;27;20211;-65
2023/01/23 08:41:47;;;;;;;19.10;7.67;;;2.50;99.90;;;;;;5064006;27;21444;-66
2023/01/23 08:44:14;;;;;;;12.83;7.17;;;2.60;99.90;;;;;;5075113;27;20289;-66
2023/01/23 08:46:41;;;;;;;10.47;5.43;;;2.60;99.90;;;;;;5069264;27;20310;-65
2023/01/23 08:49:08;;;;;;;8.40;5.63;;;2.60;99.90;;;;;;5053827;27;20619;-65
2023/01/23 08:51:35;;;;;;;9.33;5.97;;;2.60;99.90;;;;;;5079792;27;20297;-65
2023/01/23 08:54:02;;;;;;;11.90;6.40;;;2.50;99.90;;;;;;5056020;28;21300;-66
2023/01/23 08:56:29;;;;;;;9.50;5.53;;;2.60;99.90;;;;;;5087456;27;20293;-65
2023/01/23 08:58:57;;;;;;;10.17;5.97;;;2.60;99.90;;;;;;5062704;27;20463;-65
2023/01/23 09:01:25;;;;;;;8.20;5.97;;;2.60;99.90;;;;;;5076847;27;20254;-66
2023/01/23 09:03:53;;;;;;;8.60;5.87;;;2.60;99.90;;;;;;5054734;27;20404;-65
2023/01/23 09:06:21;;;;;;;14.17;6.53;;;2.60;99.90;;;;;;5089506;27;20327;-65
2023/01/23 09:08:48;;;;;;;11.63;6.87;;;2.60;99.90;;;;;;5082903;27;20311;-66
2023/01/23 09:11:16;;;;;;;10.93;6.47;;;2.60;99.90;;;;;;5065345;27;20215;-65
2023/01/23 09:13:42;;;;;;;9.60;5.87;;;2.70;99.90;;;;;;5073528;27;20333;-65
2023/01/23 09:16:11;;;;;;;12.87;6.70;;;2.70;99.90;;;;;;5061657;27;20350;-66
2023/01/23 09:18:38;;;;;;;9.63;6.50;;;2.70;99.90;;;;;;5038745;27;20310;-66
2023/01/23 09:21:10;;;;;;;12.63;6.27;;;2.70;99.90;;;;;;5088037;27;20713;-65
2023/01/23 09:23:37;;;;;;;9.70;6.50;;;2.70;99.90;;;;;;5070281;27;21383;-65
2023/01/23 09:26:05;;;;;;;10.33;6.23;;;2.70;99.90;;;;;;5062881;27;20758;-65
2023/01/23 09:28:32;;;;;;;9.27;5.80;;;2.70;99.90;;;;;;5066036;27;20282;-65
2023/01/23 09:31:03;;;;;;;9.80;6.30;;;2.80;99.90;;;;;;5057764;27;20693;-65
2023/01/23 09:33:31;;;;;;;14.30;6.13;;;2.80;99.90;;;;;;5080490;27;20253;-65
2023/01/23 09:35:58;;;;;;;9.80;6.53;;;2.80;99.90;;;;;;5046854;28;20199;-65
2023/01/23 09:38:25;;;;;;;10.97;6.17;;;2.80;99.90;;;;;;5072497;27;20296;-65
2023/01/23 09:40:56;;;;;;;11.97;6.83;;;2.80;99.90;;;;;;5066428;27;20208;-65
2023/01/23 09:43:27;;;;;;;17.07;10.07;;;2.80;99.90;;;;;;5058516;27;20280;-65
2023/01/23 09:46:02;;;;;;;13.33;7.00;;;2.90;99.90;;;;;;5067240;27;20211;-65
2023/01/23 09:48:39;;;;;;;11.17;6.10;;;2.90;99.90;;;;;;5070990;27;20224;-65
2023/01/23 09:51:17;;;;;;;10.17;6.30;;;2.90;99.90;;;;;;5043353;28;20622;-65
2023/01/23 09:53:44;;;;;;;10.30;6.50;;;2.90;99.90;;;;;;5078534;27;20226;-65
2023/01/23 09:56:29;;;;;;;13.43;6.97;;;3.00;99.90;;;;;;5089621;27;20290;-65
2023/01/23 09:59:06;;;;;;;11.20;6.20;;;3.00;99.90;;;;;;5065685;27;21867;-65
2023/01/23 10:01:33;;;;;;;11.50;6.50;;;3.00;99.90;;;;;;5066476;28;20818;-66
2023/01/23 10:04:03;;;;;;;9.53;6.30;;;3.00;99.90;;;;;;5078808;27;20346;-66
2023/01/23 10:06:33;;;;;;;12.90;6.50;;;3.10;99.90;;;;;;5056551;27;20207;-66
2023/01/23 10:09:26;;;;;;;10.63;6.37;;;3.10;99.90;;;;;;5088240;28;20402;-66
2023/01/23 10:12:04;;;;;;;9.53;6.00;;;3.10;99.90;;;;;;5077836;28;20642;-65
2023/01/23 10:14:58;;;;;;;9.63;6.30;;;3.10;99.90;;;;;;5052703;28;20368;-66
2023/01/23 10:17:33;;;;;;;12.10;6.93;;;3.10;99.90;;;;;;5070382;27;20287;-66
2023/01/23 10:20:18;;;;;;;9.40;6.77;;;3.10;99.90;;;;;;5073195;28;20306;-65
2023/01/23 10:22:54;;;;;;;8.57;5.77;;;3.10;99.90;;;;;;5056518;28;20211;-65
2023/01/23 10:25:25;;;;;;;8.33;5.87;;;3.10;99.90;;;;;;5075475;28;20276;-66
2023/01/23 10:27:57;;;;;;;7.30;5.87;;;3.10;99.90;;;;;;5071925;27;20808;-66
2023/01/23 10:30:28;;;;;;;11.17;6.53;;;3.10;99.90;;;;;;5066062;27;20204;-66
2023/01/23 10:32:58;;;;;;;9.90;6.57;;;3.10;99.90;;;;;;5068584;28;20280;-66
2023/01/23 10:35:35;;;;;;;10.07;6.33;;;3.10;99.90;;;;;;5068201;27;20218;-66
2023/01/23 10:38:11;;;;;;;16.43;6.03;;;3.10;99.90;;;;;;5060356;27;20264;-66
2023/01/23 10:43:22;;;;;;;13.90;6.40;;;3.10;99.90;;;;;;5078748;28;20313;-65
2023/01/23 10:45:50;;;;;;;11.33;6.90;;;3.20;99.90;;;;;;5060792;28;20901;-66
2023/01/23 10:48:39;;;;;;;10.57;6.47;;;3.20;99.90;;;;;;5056191;28;20292;-65
2023/01/23 10:51:34;;;;;;;11.90;6.43;;;3.20;99.90;;;;;;5046878;28;26407;-65
2023/01/23 10:54:13;;;;;;;8.30;6.03;;;3.20;99.90;;;;;;5076907;28;20306;-65
2023/01/23 10:56:47;;;;;;;9.87;6.60;;;3.30;99.90;;;;;;5086054;28;21262;-66
2023/01/23 10:59:21;;;;;;;11.30;6.83;;;3.30;99.90;;;;;;5069480;28;20290;-66
2023/01/23 11:02:00;;;;;;;9.50;6.10;;;3.30;99.90;;;;;;5065059;28;20235;-66
2023/01/23 11:04:28;;;;;;;12.47;7.00;;;3.30;99.90;;;;;;5067624;28;20239;-66
2023/01/23 11:07:06;;;;;;;10.23;6.43;;;3.20;99.90;;;;;;5054811;28;20291;-65
2023/01/23 11:09:33;;;;;;;7.77;5.80;;;3.30;99.90;;;;;;5079570;28;20202;-66
2023/01/23 11:12:05;;;;;;;12.53;7.03;;;3.30;99.90;;;;;;5084959;28;20286;-66
2023/01/23 11:14:33;;;;;;;6.77;5.57;;;3.30;99.90;;;;;;5069377;28;20313;-66
2023/01/23 11:17:02;;;;;;;8.70;5.90;;;3.30;99.90;;;;;;5069491;28;20202;-66
2023/01/23 11:19:32;;;;;;;8.50;6.17;;;3.30;99.90;;;;;;5070340;28;21614;-66
2023/01/23 11:22:01;;;;;;;11.50;6.37;;;3.30;99.90;;;;;;5046593;28;20211;-66
2023/01/23 11:24:33;;;;;;;10.13;5.87;;;3.30;99.90;;;;;;5085948;28;20291;-66
2023/01/23 11:27:02;;;;;;;9.07;6.07;;;3.30;99.90;;;;;;5075132;28;20362;-67
2023/01/23 11:29:42;;;;;;;9.60;6.20;;;3.30;99.90;;;;;;5066804;27;20315;-66
2023/01/23 11:32:13;;;;;;;10.00;6.43;;;3.30;99.90;;;;;;5071195;27;20283;-66
2023/01/23 11:34:45;;;;;;;8.53;5.40;;;3.40;99.90;;;;;;5092386;28;21123;-65
2023/01/23 11:37:18;;;;;;;9.17;5.43;;;3.30;99.90;;;;;;5030981;27;20304;-66
2023/01/23 11:39:50;;;;;;;9.30;6.47;;;3.30;99.90;;;;;;5089488;27;20287;-66
2023/01/23 11:42:18;;;;;;;8.90;6.40;;;3.30;99.90;;;;;;5088553;27;20852;-66
2023/01/23 11:44:45;;;;;;;9.77;5.53;;;3.30;99.90;;;;;;5061613;28;20208;-66
2023/01/23 11:47:40;;;;;;;11.83;6.27;;;3.30;99.90;;;;;;5085164;27;20303;-66
2023/01/23 11:50:30;;;;;;;8.27;5.47;;;3.30;99.90;;;;;;5064435;27;20231;-66
2023/01/23 11:53:05;;;;;;;9.30;5.13;;;3.40;99.90;;;;;;5055688;27;20215;-65
2023/01/23 11:55:52;;;;;;;8.37;6.10;;;3.40;99.90;;;;;;5060276;27;21300;-65
2023/01/23 11:58:33;;;;;;;12.33;5.87;;;3.30;99.90;;;;;;5050956;28;20306;-65
2023/01/23 12:01:09;;;;;;;9.73;5.73;;;3.40;99.90;;;;;;5050497;27;20302;-65
2023/01/23 12:04:13;;;;;;;9.03;6.30;;;3.40;99.90;;;;;;5029896;27;22135;-65
2023/01/23 12:06:57;;;;;;;7.60;5.27;;;3.40;99.90;;;;;;5063721;27;20281;-65
2023/01/23 12:09:30;;;;;;;8.97;5.77;;;3.40;99.90;;;;;;5043931;27;20352;-65
2023/01/23 12:12:10;;;;;;;10.77;6.37;;;3.50;99.90;;;;;;5079382;27;20396;-66
2023/01/23 12:14:46;;;;;;;9.07;6.00;;;3.40;99.90;;;;;;5068985;27;20431;-65
2023/01/23 12:17:25;;;;;;;9.30;5.90;;;3.40;99.90;;;;;;5058473;28;20232;-66
2023/01/23 12:20:15;;;;;;;9.37;6.13;;;3.40;99.90;;;;;;5041641;27;20291;-65
2023/01/23 12:22:53;;;;;;;10.33;5.90;;;3.40;99.90;;;;;;5057431;28;20225;-65
2023/01/23 12:25:29;;;;;;;7.87;5.33;;;3.40;99.90;;;;;;5080952;27;20790;-65
2023/01/23 12:28:04;;;;;;;10.80;5.67;;;3.50;99.90;;;;;;5079928;27;20305;-65
2023/01/23 12:31:03;;;;;;;9.30;6.00;;;3.50;99.90;;;;;;5087992;27;20306;-65
2023/01/23 12:33:50;;;;;;;9.30;5.73;;;3.50;99.90;;;;;;5069670;27;20317;-65
2023/01/23 12:36:34;;;;;;;9.03;5.87;;;3.60;99.90;;;;;;5053307;27;20306;-65
2023/01/23 12:39:10;;;;;;;11.07;5.97;;;3.50;99.90;;;;;;5050802;27;20235;-66
2023/01/23 12:41:41;;;;;;;15.83;5.60;;;3.50;99.90;;;;;;5084977;27;20230;-64
2023/01/23 12:44:14;;;;;;;8.83;5.23;;;3.50;99.90;;;;;;5085649;27;20225;-65
2023/01/23 12:46:49;;;;;;;8.07;5.77;;;3.50;99.90;;;;;;5064393;28;20318;-66
2023/01/23 12:49:24;;;;;;;9.17;5.80;;;3.50;99.90;;;;;;5063296;27;20311;-64
2023/01/23 12:51:55;;;;;;;10.30;5.93;;;3.50;99.90;;;;;;5056025;27;20314;-65
2023/01/23 12:54:33;;;;;;;7.00;5.07;;;3.50;99.90;;;;;;5062137;27;20231;-65
2023/01/23 12:57:03;;;;;;;9.40;5.90;;;3.80;99.90;;;;;;5053492;27;20653;-67
2023/01/23 12:59:42;;;;;;;7.60;6.07;;;3.50;99.90;;;;;;5077267;27;20775;-66
2023/01/23 13:02:18;;;;;;;9.60;6.07;;;3.50;99.90;;;;;;5046460;28;20683;-66
2023/01/23 13:04:59;;;;;;;10.73;5.57;;;3.50;99.90;;;;;;5057153;28;20303;-68
2023/01/23 13:07:41;;;;;;;9.50;5.87;;;3.50;99.90;;;;;;5071385;27;20211;-66
2023/01/23 13:11:39;;;;;;;10.03;6.53;;;3.60;99.90;;;;;;5036178;28;20925;-66
2023/01/23 13:13:17;;;;;;;8.30;6.37;;;3.60;99.90;;;;;;5071831;27;20195;-66
2023/01/23 13:16:02;;;;;;;7.97;5.63;;;3.60;99.90;;;;;;5062041;28;20237;-67
2023/01/23 13:21:59;;;;;;;7.37;5.30;;;3.60;99.90;;;;;;5065620;27;20852;-66
2023/01/23 13:27:51;;;;;;;7.30;5.33;;;3.60;99.90;;;;;;5049095;27;20329;-67